sensor_id;sensor_type;location;lat;lon;timestamp;P1;durP1;ratioP1;P2;durP2;ratioP2
313;SDS011;143;51.634;7.112;2023-09-08T00:02:23;6.87;;;4.60;;
313;SDS011;143;51.634;7.112;2023-09-08T00:04:52;10.40;;;4.50;;
313;SDS011;143;51.634;7.112;2023-09-08T00:07:19;14.13;;;5.50;;
313;SDS011;143;51.634;7.112;2023-09-08T00:09:45;7.30;;;5.00;;
313;SDS011;143;51.634;7.112;2023-09-08T00:12:10;6.73;;;4.60;;
313;SDS011;143;51.634;7.112;2023-09-08T00:14:36;8.03;;;5.03;;
313;SDS011;143;51.634;7.112;2023-09-08T00:17:02;10.37;;;4.73;;
313;SDS011;143;51.634;7.112;2023-09-08T00:19:28;13.83;;;5.10;;
313;SDS011;143;51.634;7.112;2023-09-08T00:21:53;8.10;;;4.70;;
313;SDS011;143;51.634;7.112;2023-09-08T00:24:19;8.83;;;5.30;;
313;SDS011;143;51.634;7.112;2023-09-08T00:26:44;9.40;;;4.40;;
313;SDS011;143;51.634;7.112;2023-09-08T00:29:10;14.17;;;5.80;;
313;SDS011;143;51.634;7.112;2023-09-08T00:31:36;10.03;;;5.30;;
313;SDS011;143;51.634;7.112;2023-09-08T00:34:02;9.80;;;5.57;;
313;SDS011;143;51.634;7.112;2023-09-08T00:36:27;7.60;;;5.17;;
313;SDS011;143;51.634;7.112;2023-09-08T00:38:53;9.17;;;6.00;;
313;SDS011;143;51.634;7.112;2023-09-08T00:41:19;6.73;;;4.90;;
313;SDS011;143;51.634;7.112;2023-09-08T00:43:44;15.00;;;6.07;;
313;SDS011;143;51.634;7.112;2023-09-08T00:46:10;11.97;;;5.67;;
313;SDS011;143;51.634;7.112;2023-09-08T00:48:36;9.67;;;6.50;;
313;SDS011;143;51.634;7.112;2023-09-08T00:51:03;9.50;;;5.40;;
313;SDS011;143;51.634;7.112;2023-09-08T00:53:30;9.03;;;6.53;;
313;SDS011;143;51.634;7.112;2023-09-08T00:55:56;11.00;;;6.47;;
313;SDS011;143;51.634;7.112;2023-09-08T00:58:24;10.53;;;6.33;;
313;SDS011;143;51.634;7.112;2023-09-08T01:00:50;7.57;;;5.27;;
313;SDS011;143;51.634;7.112;2023-09-08T01:03:16;15.73;;;6.63;;
313;SDS011;143;51.634;7.112;2023-09-08T01:05:41;9.23;;;5.70;;
313;SDS011;143;51.634;7.112;2023-09-08T01:08:08;9.97;;;5.93;;
313;SDS011;143;51.634;7.112;2023-09-08T01:10:34;8.60;;;5.53;;
313;SDS011;143;51.634;7.112;2023-09-08T01:13:02;13.53;;;5.77;;
313;SDS011;143;51.634;7.112;2023-09-08T01:15:27;14.83;;;5.63;;
313;SDS011;143;51.634;7.112;2023-09-08T01:17:53;8.97;;;6.30;;
313;SDS011;143;51.634;7.112;2023-09-08T01:20:21;7.30;;;5.10;;
313;SDS011;143;51.634;7.112;2023-09-08T01:25:50;11.87;;;6.30;;
313;SDS011;143;51.634;7.112;2023-09-08T01:28:22;8.67;;;6.20;;
313;SDS011;143;51.634;7.112;2023-09-08T01:30:48;9.50;;;6.70;;
313;SDS011;143;51.634;7.112;2023-09-08T01:33:15;10.70;;;6.57;;
313;SDS011;143;51.634;7.112;2023-09-08T01:35:41;9.93;;;6.13;;
313;SDS011;143;51.634;7.112;2023-09-08T01:38:07;9.53;;;5.63;;
313;SDS011;143;51.634;7.112;2023-09-08T01:40:33;16.73;;;7.40;;
313;SDS011;143;51.634;7.112;2023-09-08T01:42:59;9.80;;;6.30;;
313;SDS011;143;51.634;7.112;2023-09-08T01:45:25;10.60;;;6.50;;
313;SDS011;143;51.634;7.112;2023-09-08T01:47:51;18.93;;;6.93;;
313;SDS011;143;51.634;7.112;2023-09-08T01:50:16;15.60;;;6.90;;
313;SDS011;143;51.634;7.112;2023-09-08T01:52:46;9.20;;;6.43;;
313;SDS011;143;51.634;7.112;2023-09-08T01:55:12;10.03;;;6.23;;
313;SDS011;143;51.634;7.112;2023-09-08T01:57:38;14.20;;;6.70;;
313;SDS011;143;51.634;7.112;2023-09-08T02:00:04;10.40;;;6.87;;
313;SDS011;143;51.634;7.112;2023-09-08T02:02:30;12.30;;;7.17;;
313;SDS011;143;51.634;7.112;2023-09-08T02:04:56;8.70;;;7.13;;
313;SDS011;143;51.634;7.112;2023-09-08T02:07:21;11.40;;;6.63;;
313;SDS011;143;51.634;7.112;2023-09-08T02:09:47;7.93;;;6.63;;
313;SDS011;143;51.634;7.112;2023-09-08T02:12:13;13.70;;;7.67;;
313;SDS011;143;51.634;7.112;2023-09-08T02:14:39;9.50;;;6.60;;
313;SDS011;143;51.634;7.112;2023-09-08T02:17:04;10.67;;;6.50;;
313;SDS011;143;51.634;7.112;2023-09-08T02:19:31;9.63;;;6.60;;
313;SDS011;143;51.634;7.112;2023-09-08T02:21:56;9.33;;;6.93;;
313;SDS011;143;51.634;7.112;2023-09-08T02:24:22;9.80;;;7.37;;
313;SDS011;143;51.634;7.112;2023-09-08T02:26:49;9.63;;;7.17;;
313;SDS011;143;51.634;7.112;2023-09-08T02:29:14;9.67;;;7.20;;
313;SDS011;143;51.634;7.112;2023-09-08T02:31:40;11.63;;;7.40;;
313;SDS011;143;51.634;7.112;2023-09-08T02:34:06;12.43;;;7.07;;
313;SDS011;143;51.634;7.112;2023-09-08T02:36:31;10.03;;;7.40;;
313;SDS011;143;51.634;7.112;2023-09-08T02:38:57;12.40;;;7.83;;
313;SDS011;143;51.634;7.112;2023-09-08T02:41:23;16.03;;;8.20;;
313;SDS011;143;51.634;7.112;2023-09-08T02:43:49;14.03;;;8.10;;
313;SDS011;143;51.634;7.112;2023-09-08T02:46:15;11.43;;;7.63;;
313;SDS011;143;51.634;7.112;2023-09-08T02:48:41;10.87;;;6.77;;
313;SDS011;143;51.634;7.112;2023-09-08T02:51:06;10.57;;;7.50;;
313;SDS011;143;51.634;7.112;2023-09-08T02:53:32;11.17;;;7.30;;
313;SDS011;143;51.634;7.112;2023-09-08T02:55:59;11.60;;;7.47;;
313;SDS011;143;51.634;7.112;2023-09-08T02:58:25;13.17;;;8.30;;
313;SDS011;143;51.634;7.112;2023-09-08T03:00:51;14.63;;;8.50;;
313;SDS011;143;51.634;7.112;2023-09-08T03:03:18;12.60;;;7.33;;
313;SDS011;143;51.634;7.112;2023-09-08T03:05:44;16.77;;;8.70;;
313;SDS011;143;51.634;7.112;2023-09-08T03:08:10;14.03;;;8.33;;
313;SDS011;143;51.634;7.112;2023-09-08T03:10:36;11.67;;;7.60;;
313;SDS011;143;51.634;7.112;2023-09-08T03:13:02;19.00;;;7.53;;
313;SDS011;143;51.634;7.112;2023-09-08T03:15:28;14.00;;;8.50;;
313;SDS011;143;51.634;7.112;2023-09-08T03:17:54;15.60;;;7.70;;
313;SDS011;143;51.634;7.112;2023-09-08T03:20:20;16.03;;;7.60;;
313;SDS011;143;51.634;7.112;2023-09-08T03:22:46;15.63;;;8.50;;
313;SDS011;143;51.634;7.112;2023-09-08T03:25:15;12.23;;;8.23;;
313;SDS011;143;51.634;7.112;2023-09-08T03:27:41;15.20;;;7.53;;
313;SDS011;143;51.634;7.112;2023-09-08T03:30:07;11.03;;;8.13;;
313;SDS011;143;51.634;7.112;2023-09-08T03:32:33;9.70;;;7.20;;
313;SDS011;143;51.634;7.112;2023-09-08T03:34:59;12.20;;;7.23;;
313;SDS011;143;51.634;7.112;2023-09-08T03:37:24;10.33;;;7.80;;
313;SDS011;143;51.634;7.112;2023-09-08T03:39:51;11.83;;;7.10;;
313;SDS011;143;51.634;7.112;2023-09-08T03:42:17;11.63;;;7.53;;
313;SDS011;143;51.634;7.112;2023-09-08T03:44:43;13.37;;;8.90;;
313;SDS011;143;51.634;7.112;2023-09-08T03:47:09;13.83;;;8.57;;
313;SDS011;143;51.634;7.112;2023-09-08T03:49:35;10.33;;;7.83;;
313;SDS011;143;51.634;7.112;2023-09-08T03:52:00;13.97;;;7.10;;
313;SDS011;143;51.634;7.112;2023-09-08T03:54:26;10.17;;;7.67;;
313;SDS011;143;51.634;7.112;2023-09-08T03:56:52;14.73;;;9.00;;
313;SDS011;143;51.634;7.112;2023-09-08T03:59:18;23.90;;;7.90;;
313;SDS011;143;51.634;7.112;2023-09-08T04:01:43;13.83;;;8.07;;
313;SDS011;143;51.634;7.112;2023-09-08T04:04:09;16.27;;;8.30;;
313;SDS011;143;51.634;7.112;2023-09-08T04:06:35;20.10;;;8.63;;
313;SDS011;143;51.634;7.112;2023-09-08T04:09:00;13.37;;;7.67;;
313;SDS011;143;51.634;7.112;2023-09-08T04:11:26;11.33;;;8.10;;
313;SDS011;143;51.634;7.112;2023-09-08T04:13:52;14.70;;;8.77;;
313;SDS011;143;51.634;7.112;2023-09-08T04:16:17;19.57;;;8.83;;
313;SDS011;143;51.634;7.112;2023-09-08T04:18:43;15.23;;;8.90;;
313;SDS011;143;51.634;7.112;2023-09-08T04:21:09;12.27;;;8.30;;
313;SDS011;143;51.634;7.112;2023-09-08T04:23:35;10.13;;;7.13;;
313;SDS011;143;51.634;7.112;2023-09-08T04:26:01;12.20;;;7.90;;
313;SDS011;143;51.634;7.112;2023-09-08T04:28:27;14.10;;;7.50;;
313;SDS011;143;51.634;7.112;2023-09-08T04:30:53;12.90;;;8.40;;
313;SDS011;143;51.634;7.112;2023-09-08T04:33:18;13.20;;;7.80;;
313;SDS011;143;51.634;7.112;2023-09-08T04:35:44;13.73;;;7.30;;
313;SDS011;143;51.634;7.112;2023-09-08T04:38:10;12.40;;;7.10;;
313;SDS011;143;51.634;7.112;2023-09-08T04:40:36;15.73;;;8.53;;
313;SDS011;143;51.634;7.112;2023-09-08T04:43:05;11.73;;;7.60;;
313;SDS011;143;51.634;7.112;2023-09-08T04:45:30;16.35;;;7.95;;
313;SDS011;143;51.634;7.112;2023-09-08T04:47:56;9.17;;;7.07;;
313;SDS011;143;51.634;7.112;2023-09-08T04:50:22;19.53;;;8.87;;
313;SDS011;143;51.634;7.112;2023-09-08T04:52:47;12.53;;;7.50;;
313;SDS011;143;51.634;7.112;2023-09-08T04:55:13;11.57;;;7.87;;
313;SDS011;143;51.634;7.112;2023-09-08T04:57:39;11.83;;;8.17;;
313;SDS011;143;51.634;7.112;2023-09-08T05:00:04;10.90;;;8.17;;
313;SDS011;143;51.634;7.112;2023-09-08T05:02:31;11.50;;;8.23;;
313;SDS011;143;51.634;7.112;2023-09-08T05:04:57;10.60;;;7.20;;
313;SDS011;143;51.634;7.112;2023-09-08T05:07:23;12.23;;;7.87;;
313;SDS011;143;51.634;7.112;2023-09-08T05:09:49;11.83;;;7.70;;
313;SDS011;143;51.634;7.112;2023-09-08T05:12:14;12.90;;;7.23;;
313;SDS011;143;51.634;7.112;2023-09-08T05:14:40;10.37;;;7.93;;
313;SDS011;143;51.634;7.112;2023-09-08T05:17:06;15.93;;;8.00;;
313;SDS011;143;51.634;7.112;2023-09-08T05:19:32;12.43;;;7.00;;
313;SDS011;143;51.634;7.112;2023-09-08T05:21:57;11.57;;;7.30;;
313;SDS011;143;51.634;7.112;2023-09-08T05:24:23;12.77;;;7.57;;
313;SDS011;143;51.634;7.112;2023-09-08T05:26:50;10.00;;;6.90;;
313;SDS011;143;51.634;7.112;2023-09-08T05:29:16;16.10;;;7.80;;
313;SDS011;143;51.634;7.112;2023-09-08T05:31:42;15.10;;;6.67;;
313;SDS011;143;51.634;7.112;2023-09-08T05:34:08;17.27;;;7.40;;
313;SDS011;143;51.634;7.112;2023-09-08T05:36:34;9.80;;;6.63;;
313;SDS011;143;51.634;7.112;2023-09-08T05:39:02;11.80;;;8.03;;
313;SDS011;143;51.634;7.112;2023-09-08T05:41:27;13.83;;;7.70;;
313;SDS011;143;51.634;7.112;2023-09-08T05:43:53;9.30;;;6.73;;
313;SDS011;143;51.634;7.112;2023-09-08T05:46:19;12.93;;;8.40;;
313;SDS011;143;51.634;7.112;2023-09-08T05:48:45;10.83;;;7.43;;
313;SDS011;143;51.634;7.112;2023-09-08T05:51:12;11.57;;;7.17;;
313;SDS011;143;51.634;7.112;2023-09-08T05:53:39;13.30;;;7.47;;
313;SDS011;143;51.634;7.112;2023-09-08T05:56:05;12.53;;;7.87;;
313;SDS011;143;51.634;7.112;2023-09-08T05:58:31;13.73;;;7.20;;
313;SDS011;143;51.634;7.112;2023-09-08T06:00:58;13.83;;;8.70;;
313;SDS011;143;51.634;7.112;2023-09-08T06:03:27;10.53;;;7.00;;
313;SDS011;143;51.634;7.112;2023-09-08T06:05:53;14.83;;;7.00;;
313;SDS011;143;51.634;7.112;2023-09-08T06:08:19;10.93;;;8.10;;
313;SDS011;143;51.634;7.112;2023-09-08T06:10:45;15.50;;;7.97;;
313;SDS011;143;51.634;7.112;2023-09-08T06:13:10;12.53;;;6.73;;
313;SDS011;143;51.634;7.112;2023-09-08T06:15:36;10.13;;;6.83;;
313;SDS011;143;51.634;7.112;2023-09-08T06:18:02;10.50;;;7.70;;
313;SDS011;143;51.634;7.112;2023-09-08T06:20:28;14.13;;;6.60;;
313;SDS011;143;51.634;7.112;2023-09-08T06:22:53;18.87;;;6.30;;
313;SDS011;143;51.634;7.112;2023-09-08T06:25:19;9.80;;;6.80;;
313;SDS011;143;51.634;7.112;2023-09-08T06:27:45;13.67;;;7.43;;
313;SDS011;143;51.634;7.112;2023-09-08T06:30:11;10.33;;;6.60;;
313;SDS011;143;51.634;7.112;2023-09-08T06:32:39;8.93;;;6.00;;
313;SDS011;143;51.634;7.112;2023-09-08T06:35:05;14.90;;;5.90;;
313;SDS011;143;51.634;7.112;2023-09-08T06:37:37;15.50;;;6.67;;
313;SDS011;143;51.634;7.112;2023-09-08T06:40:04;8.67;;;5.90;;
313;SDS011;143;51.634;7.112;2023-09-08T06:42:30;13.37;;;6.80;;
313;SDS011;143;51.634;7.112;2023-09-08T06:44:56;17.03;;;5.70;;
313;SDS011;143;51.634;7.112;2023-09-08T06:47:22;10.00;;;5.77;;
313;SDS011;143;51.634;7.112;2023-09-08T06:49:48;12.10;;;5.50;;
313;SDS011;143;51.634;7.112;2023-09-08T06:52:13;11.30;;;5.93;;
313;SDS011;143;51.634;7.112;2023-09-08T06:54:39;8.40;;;5.73;;
313;SDS011;143;51.634;7.112;2023-09-08T06:57:05;10.73;;;6.20;;
313;SDS011;143;51.634;7.112;2023-09-08T06:59:30;12.87;;;6.00;;
313;SDS011;143;51.634;7.112;2023-09-08T07:01:56;15.23;;;6.87;;
313;SDS011;143;51.634;7.112;2023-09-08T07:04:22;11.67;;;6.20;;
313;SDS011;143;51.634;7.112;2023-09-08T07:06:47;14.63;;;5.90;;
313;SDS011;143;51.634;7.112;2023-09-08T07:09:15;11.77;;;5.67;;
313;SDS011;143;51.634;7.112;2023-09-08T07:11:41;9.00;;;5.97;;
313;SDS011;143;51.634;7.112;2023-09-08T07:14:06;9.40;;;5.53;;
313;SDS011;143;51.634;7.112;2023-09-08T07:16:33;7.10;;;4.77;;
313;SDS011;143;51.634;7.112;2023-09-08T07:18:59;12.90;;;5.40;;
313;SDS011;143;51.634;7.112;2023-09-08T07:21:26;14.13;;;5.80;;
313;SDS011;143;51.634;7.112;2023-09-08T07:23:52;9.00;;;5.33;;
313;SDS011;143;51.634;7.112;2023-09-08T07:26:19;8.80;;;5.00;;
313;SDS011;143;51.634;7.112;2023-09-08T07:28:45;9.90;;;5.50;;
313;SDS011;143;51.634;7.112;2023-09-08T07:31:10;6.83;;;4.80;;
313;SDS011;143;51.634;7.112;2023-09-08T07:33:37;13.07;;;5.00;;
313;SDS011;143;51.634;7.112;2023-09-08T07:36:06;18.30;;;5.70;;
313;SDS011;143;51.634;7.112;2023-09-08T07:38:33;5.50;;;4.13;;
313;SDS011;143;51.634;7.112;2023-09-08T07:40:59;8.77;;;4.93;;
313;SDS011;143;51.634;7.112;2023-09-08T07:43:28;8.17;;;4.40;;
313;SDS011;143;51.634;7.112;2023-09-08T07:45:54;7.63;;;5.33;;
313;SDS011;143;51.634;7.112;2023-09-08T07:48:20;8.60;;;4.60;;
313;SDS011;143;51.634;7.112;2023-09-08T07:50:46;8.07;;;4.90;;
313;SDS011;143;51.634;7.112;2023-09-08T07:53:12;10.70;;;4.80;;
313;SDS011;143;51.634;7.112;2023-09-08T07:55:37;11.37;;;5.47;;
313;SDS011;143;51.634;7.112;2023-09-08T07:58:03;11.10;;;4.70;;
313;SDS011;143;51.634;7.112;2023-09-08T08:00:29;12.50;;;5.17;;
313;SDS011;143;51.634;7.112;2023-09-08T08:02:56;8.70;;;5.10;;
313;SDS011;143;51.634;7.112;2023-09-08T08:05:22;6.53;;;4.83;;
313;SDS011;143;51.634;7.112;2023-09-08T08:07:48;13.87;;;5.27;;
313;SDS011;143;51.634;7.112;2023-09-08T08:10:14;10.33;;;5.27;;
313;SDS011;143;51.634;7.112;2023-09-08T08:12:40;10.87;;;5.47;;
313;SDS011;143;51.634;7.112;2023-09-08T08:15:08;8.97;;;4.93;;
313;SDS011;143;51.634;7.112;2023-09-08T08:17:35;7.77;;;4.87;;
313;SDS011;143;51.634;7.112;2023-09-08T08:20:02;8.73;;;5.20;;
313;SDS011;143;51.634;7.112;2023-09-08T08:22:34;9.03;;;5.47;;
313;SDS011;143;51.634;7.112;2023-09-08T08:25:03;10.97;;;5.50;;
313;SDS011;143;51.634;7.112;2023-09-08T08:27:30;8.97;;;5.30;;
313;SDS011;143;51.634;7.112;2023-09-08T08:29:56;12.73;;;5.80;;
313;SDS011;143;51.634;7.112;2023-09-08T08:32:25;8.47;;;5.57;;
313;SDS011;143;51.634;7.112;2023-09-08T08:34:54;12.97;;;5.43;;
313;SDS011;143;51.634;7.112;2023-09-08T08:37:19;9.90;;;6.03;;
313;SDS011;143;51.634;7.112;2023-09-08T08:39:45;15.93;;;5.47;;
313;SDS011;143;51.634;7.112;2023-09-08T08:42:11;7.40;;;4.93;;
313;SDS011;143;51.634;7.112;2023-09-08T08:44:37;15.50;;;5.83;;
313;SDS011;143;51.634;7.112;2023-09-08T08:47:05;7.70;;;4.67;;
313;SDS011;143;51.634;7.112;2023-09-08T08:49:32;15.07;;;5.80;;
313;SDS011;143;51.634;7.112;2023-09-08T08:51:58;9.30;;;5.10;;
313;SDS011;143;51.634;7.112;2023-09-08T08:54:25;9.97;;;5.20;;
313;SDS011;143;51.634;7.112;2023-09-08T08:56:53;10.40;;;5.87;;
313;SDS011;143;51.634;7.112;2023-09-08T08:59:19;16.77;;;6.33;;
313;SDS011;143;51.634;7.112;2023-09-08T09:01:44;11.57;;;6.10;;
313;SDS011;143;51.634;7.112;2023-09-08T09:04:10;6.43;;;4.20;;
313;SDS011;143;51.634;7.112;2023-09-08T09:06:37;12.87;;;5.20;;
313;SDS011;143;51.634;7.112;2023-09-08T09:09:03;11.27;;;6.10;;
313;SDS011;143;51.634;7.112;2023-09-08T09:11:29;11.30;;;5.50;;
313;SDS011;143;51.634;7.112;2023-09-08T09:13:56;7.97;;;5.13;;
313;SDS011;143;51.634;7.112;2023-09-08T09:16:23;10.20;;;5.30;;
313;SDS011;143;51.634;7.112;2023-09-08T09:18:56;11.23;;;5.70;;
313;SDS011;143;51.634;7.112;2023-09-08T09:21:23;19.10;;;4.87;;
313;SDS011;143;51.634;7.112;2023-09-08T09:24:05;6.97;;;5.00;;
313;SDS011;143;51.634;7.112;2023-09-08T09:26:31;8.70;;;5.30;;
313;SDS011;143;51.634;7.112;2023-09-08T09:28:57;9.17;;;5.40;;
313;SDS011;143;51.634;7.112;2023-09-08T09:31:24;7.70;;;5.23;;
313;SDS011;143;51.634;7.112;2023-09-08T09:34:03;10.73;;;4.67;;
313;SDS011;143;51.634;7.112;2023-09-08T09:36:30;9.93;;;5.07;;
313;SDS011;143;51.634;7.112;2023-09-08T09:38:59;15.07;;;5.43;;
313;SDS011;143;51.634;7.112;2023-09-08T09:41:27;16.00;;;5.77;;
313;SDS011;143;51.634;7.112;2023-09-08T09:43:54;11.60;;;4.87;;
313;SDS011;143;51.634;7.112;2023-09-08T09:46:21;10.13;;;5.30;;
313;SDS011;143;51.634;7.112;2023-09-08T09:48:50;8.20;;;5.17;;
313;SDS011;143;51.634;7.112;2023-09-08T09:51:18;8.97;;;5.37;;
313;SDS011;143;51.634;7.112;2023-09-08T09:53:45;10.50;;;5.10;;
313;SDS011;143;51.634;7.112;2023-09-08T09:56:11;5.77;;;4.97;;
313;SDS011;143;51.634;7.112;2023-09-08T09:58:37;7.97;;;4.97;;
313;SDS011;143;51.634;7.112;2023-09-08T10:01:03;7.30;;;4.47;;
313;SDS011;143;51.634;7.112;2023-09-08T10:03:30;9.33;;;5.07;;
313;SDS011;143;51.634;7.112;2023-09-08T10:05:58;15.17;;;4.67;;
313;SDS011;143;51.634;7.112;2023-09-08T10:08:25;6.90;;;5.27;;
313;SDS011;143;51.634;7.112;2023-09-08T10:10:50;9.73;;;4.67;;
313;SDS011;143;51.634;7.112;2023-09-08T10:13:26;10.20;;;4.87;;
313;SDS011;143;51.634;7.112;2023-09-08T10:15:57;7.20;;;4.57;;
313;SDS011;143;51.634;7.112;2023-09-08T10:18:26;6.77;;;5.30;;
313;SDS011;143;51.634;7.112;2023-09-08T10:20:53;6.80;;;4.50;;
313;SDS011;143;51.634;7.112;2023-09-08T10:23:27;8.03;;;4.80;;
313;SDS011;143;51.634;7.112;2023-09-08T10:25:59;7.67;;;4.57;;
313;SDS011;143;51.634;7.112;2023-09-08T10:28:31;7.63;;;4.57;;
313;SDS011;143;51.634;7.112;2023-09-08T10:30:58;7.53;;;4.60;;
313;SDS011;143;51.634;7.112;2023-09-08T10:33:24;9.30;;;4.37;;
313;SDS011;143;51.634;7.112;2023-09-08T10:35:51;6.10;;;4.30;;
313;SDS011;143;51.634;7.112;2023-09-08T10:38:21;8.53;;;4.57;;
313;SDS011;143;51.634;7.112;2023-09-08T10:40:48;5.63;;;4.20;;
313;SDS011;143;51.634;7.112;2023-09-08T10:43:14;9.53;;;4.80;;
313;SDS011;143;51.634;7.112;2023-09-08T10:45:40;8.27;;;4.63;;
313;SDS011;143;51.634;7.112;2023-09-08T10:48:09;7.80;;;4.77;;
313;SDS011;143;51.634;7.112;2023-09-08T10:50:38;6.10;;;4.50;;
313;SDS011;143;51.634;7.112;2023-09-08T10:55:42;8.90;;;3.90;;
313;SDS011;143;51.634;7.112;2023-09-08T10:58:34;8.40;;;5.17;;
313;SDS011;143;51.634;7.112;2023-09-08T11:01:01;5.27;;;4.37;;
313;SDS011;143;51.634;7.112;2023-09-08T11:03:28;7.80;;;4.57;;
313;SDS011;143;51.634;7.112;2023-09-08T11:06:09;5.23;;;4.17;;
313;SDS011;143;51.634;7.112;2023-09-08T11:08:41;8.17;;;4.97;;
313;SDS011;143;51.634;7.112;2023-09-08T11:11:07;6.17;;;3.93;;
313;SDS011;143;51.634;7.112;2023-09-08T11:13:35;7.60;;;4.53;;
313;SDS011;143;51.634;7.112;2023-09-08T11:16:01;8.03;;;4.77;;
313;SDS011;143;51.634;7.112;2023-09-08T11:18:31;13.80;;;4.40;;
313;SDS011;143;51.634;7.112;2023-09-08T11:20:59;4.30;;;3.93;;
313;SDS011;143;51.634;7.112;2023-09-08T11:23:25;6.30;;;4.50;;
313;SDS011;143;51.634;7.112;2023-09-08T11:25:52;8.90;;;4.67;;
313;SDS011;143;51.634;7.112;2023-09-08T11:28:19;6.57;;;4.43;;
313;SDS011;143;51.634;7.112;2023-09-08T11:30:47;8.47;;;3.97;;
313;SDS011;143;51.634;7.112;2023-09-08T11:33:16;5.77;;;4.37;;
313;SDS011;143;51.634;7.112;2023-09-08T11:35:46;5.77;;;4.30;;
313;SDS011;143;51.634;7.112;2023-09-08T11:38:13;7.23;;;4.37;;
313;SDS011;143;51.634;7.112;2023-09-08T11:40:40;5.20;;;4.00;;
313;SDS011;143;51.634;7.112;2023-09-08T11:43:07;6.63;;;4.20;;
313;SDS011;143;51.634;7.112;2023-09-08T11:45:36;6.23;;;4.50;;
313;SDS011;143;51.634;7.112;2023-09-08T11:48:05;6.27;;;4.30;;
313;SDS011;143;51.634;7.112;2023-09-08T11:50:31;6.03;;;4.57;;
313;SDS011;143;51.634;7.112;2023-09-08T11:52:58;9.80;;;4.43;;
313;SDS011;143;51.634;7.112;2023-09-08T11:55:25;7.63;;;4.57;;
313;SDS011;143;51.634;7.112;2023-09-08T11:57:54;5.90;;;4.30;;
313;SDS011;143;51.634;7.112;2023-09-08T12:00:26;5.50;;;4.13;;
313;SDS011;143;51.634;7.112;2023-09-08T12:02:52;6.20;;;4.20;;
313;SDS011;143;51.634;7.112;2023-09-08T12:05:22;7.67;;;3.90;;
313;SDS011;143;51.634;7.112;2023-09-08T12:07:49;5.00;;;3.77;;
313;SDS011;143;51.634;7.112;2023-09-08T12:10:16;7.50;;;3.97;;
313;SDS011;143;51.634;7.112;2023-09-08T12:12:46;8.20;;;4.17;;
313;SDS011;143;51.634;7.112;2023-09-08T12:18:14;6.93;;;5.03;;
313;SDS011;143;51.634;7.112;2023-09-08T12:20:40;7.33;;;4.73;;
313;SDS011;143;51.634;7.112;2023-09-08T12:23:16;5.30;;;4.40;;
313;SDS011;143;51.634;7.112;2023-09-08T12:25:53;5.37;;;4.20;;
313;SDS011;143;51.634;7.112;2023-09-08T12:28:19;8.07;;;4.07;;
313;SDS011;143;51.634;7.112;2023-09-08T12:30:45;5.57;;;4.30;;
313;SDS011;143;51.634;7.112;2023-09-08T12:33:11;17.27;;;5.10;;
313;SDS011;143;51.634;7.112;2023-09-08T12:35:42;5.70;;;4.27;;
313;SDS011;143;51.634;7.112;2023-09-08T12:38:09;7.00;;;4.50;;
313;SDS011;143;51.634;7.112;2023-09-08T12:40:35;14.00;;;4.37;;
313;SDS011;143;51.634;7.112;2023-09-08T12:43:03;7.20;;;4.57;;
313;SDS011;143;51.634;7.112;2023-09-08T12:45:29;13.17;;;4.60;;
313;SDS011;143;51.634;7.112;2023-09-08T12:47:57;5.70;;;4.27;;
313;SDS011;143;51.634;7.112;2023-09-08T12:50:25;8.53;;;3.90;;
313;SDS011;143;51.634;7.112;2023-09-08T12:52:51;9.80;;;4.30;;
313;SDS011;143;51.634;7.112;2023-09-08T12:55:17;5.97;;;4.30;;
313;SDS011;143;51.634;7.112;2023-09-08T12:57:42;6.90;;;3.90;;
313;SDS011;143;51.634;7.112;2023-09-08T13:00:08;9.97;;;4.67;;
313;SDS011;143;51.634;7.112;2023-09-08T13:02:34;9.53;;;4.70;;
313;SDS011;143;51.634;7.112;2023-09-08T13:05:01;14.13;;;4.40;;
313;SDS011;143;51.634;7.112;2023-09-08T13:07:27;6.50;;;3.90;;
313;SDS011;143;51.634;7.112;2023-09-08T13:09:53;11.00;;;4.43;;
313;SDS011;143;51.634;7.112;2023-09-08T13:12:19;7.40;;;4.43;;
313;SDS011;143;51.634;7.112;2023-09-08T13:14:44;5.70;;;4.37;;
313;SDS011;143;51.634;7.112;2023-09-08T13:17:10;6.10;;;4.03;;
313;SDS011;143;51.634;7.112;2023-09-08T13:19:37;7.50;;;4.50;;
313;SDS011;143;51.634;7.112;2023-09-08T13:22:03;6.07;;;4.67;;
313;SDS011;143;51.634;7.112;2023-09-08T13:24:29;8.77;;;4.33;;
313;SDS011;143;51.634;7.112;2023-09-08T13:26:55;6.00;;;4.50;;
313;SDS011;143;51.634;7.112;2023-09-08T13:29:21;12.63;;;4.53;;
313;SDS011;143;51.634;7.112;2023-09-08T13:31:47;7.40;;;4.60;;
313;SDS011;143;51.634;7.112;2023-09-08T13:34:13;8.10;;;4.17;;
313;SDS011;143;51.634;7.112;2023-09-08T13:36:39;6.93;;;4.13;;
313;SDS011;143;51.634;7.112;2023-09-08T13:39:04;4.80;;;3.70;;
313;SDS011;143;51.634;7.112;2023-09-08T13:44:11;5.07;;;3.90;;
313;SDS011;143;51.634;7.112;2023-09-08T13:46:36;7.40;;;3.83;;
313;SDS011;143;51.634;7.112;2023-09-08T13:49:02;5.90;;;3.67;;
313;SDS011;143;51.634;7.112;2023-09-08T13:51:28;7.17;;;4.53;;
313;SDS011;143;51.634;7.112;2023-09-08T13:53:53;6.00;;;4.83;;
313;SDS011;143;51.634;7.112;2023-09-08T13:56:19;7.67;;;3.80;;
313;SDS011;143;51.634;7.112;2023-09-08T13:58:45;6.43;;;3.73;;
313;SDS011;143;51.634;7.112;2023-09-08T14:01:11;7.37;;;3.80;;
313;SDS011;143;51.634;7.112;2023-09-08T14:03:37;8.40;;;4.33;;
313;SDS011;143;51.634;7.112;2023-09-08T14:06:02;8.90;;;4.30;;
313;SDS011;143;51.634;7.112;2023-09-08T14:08:28;5.83;;;4.47;;
313;SDS011;143;51.634;7.112;2023-09-08T14:10:54;8.17;;;4.60;;
313;SDS011;143;51.634;7.112;2023-09-08T14:13:20;7.73;;;4.87;;
313;SDS011;143;51.634;7.112;2023-09-08T14:15:45;6.70;;;3.97;;
313;SDS011;143;51.634;7.112;2023-09-08T14:18:11;6.93;;;4.10;;
313;SDS011;143;51.634;7.112;2023-09-08T14:20:38;8.27;;;4.47;;
313;SDS011;143;51.634;7.112;2023-09-08T14:23:05;11.63;;;4.87;;
313;SDS011;143;51.634;7.112;2023-09-08T14:25:32;4.50;;;4.07;;
313;SDS011;143;51.634;7.112;2023-09-08T14:27:58;5.43;;;4.13;;
313;SDS011;143;51.634;7.112;2023-09-08T14:30:24;10.43;;;4.73;;
313;SDS011;143;51.634;7.112;2023-09-08T14:32:49;5.10;;;3.67;;
313;SDS011;143;51.634;7.112;2023-09-08T14:35:15;8.37;;;4.27;;
313;SDS011;143;51.634;7.112;2023-09-08T14:37:41;7.00;;;4.17;;
313;SDS011;143;51.634;7.112;2023-09-08T14:40:07;5.30;;;4.17;;
313;SDS011;143;51.634;7.112;2023-09-08T14:42:32;8.33;;;4.10;;
313;SDS011;143;51.634;7.112;2023-09-08T14:44:58;5.60;;;4.10;;
313;SDS011;143;51.634;7.112;2023-09-08T14:47:24;6.53;;;4.20;;
313;SDS011;143;51.634;7.112;2023-09-08T14:49:50;10.70;;;4.17;;
313;SDS011;143;51.634;7.112;2023-09-08T14:52:15;5.03;;;4.27;;
313;SDS011;143;51.634;7.112;2023-09-08T14:54:42;7.37;;;4.67;;
313;SDS011;143;51.634;7.112;2023-09-08T14:57:08;5.00;;;4.10;;
313;SDS011;143;51.634;7.112;2023-09-08T14:59:34;6.20;;;4.30;;
313;SDS011;143;51.634;7.112;2023-09-08T15:01:59;7.47;;;4.80;;
313;SDS011;143;51.634;7.112;2023-09-08T15:04:25;6.60;;;4.20;;
313;SDS011;143;51.634;7.112;2023-09-08T15:06:51;7.83;;;4.30;;
313;SDS011;143;51.634;7.112;2023-09-08T15:09:16;8.03;;;4.23;;
313;SDS011;143;51.634;7.112;2023-09-08T15:11:42;8.00;;;4.70;;
313;SDS011;143;51.634;7.112;2023-09-08T15:14:08;8.07;;;5.00;;
313;SDS011;143;51.634;7.112;2023-09-08T15:16:34;7.47;;;4.10;;
313;SDS011;143;51.634;7.112;2023-09-08T15:19:00;9.30;;;4.60;;
313;SDS011;143;51.634;7.112;2023-09-08T15:21:25;5.53;;;4.40;;
313;SDS011;143;51.634;7.112;2023-09-08T15:23:54;8.10;;;4.90;;
313;SDS011;143;51.634;7.112;2023-09-08T15:26:20;12.50;;;4.93;;
313;SDS011;143;51.634;7.112;2023-09-08T15:28:46;5.50;;;4.33;;
313;SDS011;143;51.634;7.112;2023-09-08T15:31:14;6.50;;;4.40;;
313;SDS011;143;51.634;7.112;2023-09-08T15:33:41;7.50;;;4.40;;
313;SDS011;143;51.634;7.112;2023-09-08T15:36:06;9.73;;;4.60;;
313;SDS011;143;51.634;7.112;2023-09-08T15:38:32;7.10;;;4.13;;
313;SDS011;143;51.634;7.112;2023-09-08T15:43:36;6.77;;;4.80;;
313;SDS011;143;51.634;7.112;2023-09-08T15:46:03;12.10;;;4.07;;
313;SDS011;143;51.634;7.112;2023-09-08T15:48:29;9.10;;;5.00;;